sensor_id;sensor_type;location;lat;lon;timestamp;pressure;altitude;pressure_sealevel;temperature;humidity
11349;BME280;5729;43.570;27.826;2023-04-26T00:00:19;98079.44;;;11.17;100.00
11349;BME280;5729;43.570;27.826;2023-04-26T00:02:45;98097.16;;;11.25;100.00
11349;BME280;5729;43.570;27.826;2023-04-26T00:05:10;98103.31;;;11.18;100.00
11349;BME280;5729;43.570;27.826;2023-04-26T00:07:36;98096.75;;;11.19;100.00
11349;BME280;5729;43.570;27.826;2023-04-26T00:10:03;98100.22;;;11.13;100.00
11349;BME280;5729;43.570;27.826;2023-04-26T00:12:29;98105.22;;;11.07;100.00
11349;BME280;5729;43.570;27.826;2023-04-26T00:14:54;98098.28;;;11.06;100.00
11349;BME280;5729;43.570;27.826;2023-04-26T00:17:20;98102.50;;;11.07;100.00
11349;BME280;5729;43.570;27.826;2023-04-26T00:19:45;98098.28;;;10.99;100.00
11349;BME280;5729;43.570;27.826;2023-04-26T00:22:11;98112.91;;;10.95;100.00
11349;BME280;5729;43.570;27.826;2023-04-26T00:24:37;98101.34;;;10.94;100.00
11349;BME280;5729;43.570;27.826;2023-04-26T00:27:02;98102.88;;;10.95;100.00
11349;BME280;5729;43.570;27.826;2023-04-26T00:29:33;98109.44;;;10.98;100.00
11349;BME280;5729;43.570;27.826;2023-04-26T00:31:59;98106.34;;;10.96;100.00
11349;BME280;5729;43.570;27.826;2023-04-26T00:34:31;98108.66;;;10.97;100.00
11349;BME280;5729;43.570;27.826;2023-04-26T00:36:56;98112.13;;;10.94;100.00
11349;BME280;5729;43.570;27.826;2023-04-26T00:39:21;98104.81;;;10.91;100.00
11349;BME280;5729;43.570;27.826;2023-04-26T00:41:47;98110.59;;;10.93;100.00
11349;BME280;5729;43.570;27.826;2023-04-26T00:44:13;98110.97;;;10.99;100.00
11349;BME280;5729;43.570;27.826;2023-04-26T00:46:38;98110.22;;;11.02;100.00
11349;BME280;5729;43.570;27.826;2023-04-26T00:49:04;98105.97;;;10.97;100.00
11349;BME280;5729;43.570;27.826;2023-04-26T00:51:29;98102.94;;;11.06;100.00
11349;BME280;5729;43.570;27.826;2023-04-26T00:53:55;98108.31;;;11.13;100.00
11349;BME280;5729;43.570;27.826;2023-04-26T00:56:23;98093.66;;;11.17;100.00
11349;BME280;5729;43.570;27.826;2023-04-26T00:58:49;98108.31;;;11.13;100.00
11349;BME280;5729;43.570;27.826;2023-04-26T01:01:14;98108.31;;;11.13;100.00
11349;BME280;5729;43.570;27.826;2023-04-26T01:03:40;98102.19;;;11.26;100.00
11349;BME280;5729;43.570;27.826;2023-04-26T01:06:05;98101.03;;;11.35;100.00
11349;BME280;5729;43.570;27.826;2023-04-26T01:08:31;98100.63;;;11.36;100.00
11349;BME280;5729;43.570;27.826;2023-04-26T01:10:57;98081.34;;;11.31;100.00
11349;BME280;5729;43.570;27.826;2023-04-26T01:13:24;98088.28;;;11.24;100.00
11349;BME280;5729;43.570;27.826;2023-04-26T01:15:50;98100.25;;;11.38;100.00
11349;BME280;5729;43.570;27.826;2023-04-26T01:18:16;98092.56;;;11.40;100.00
11349;BME280;5729;43.570;27.826;2023-04-26T01:20:41;98092.53;;;11.43;100.00
11349;BME280;5729;43.570;27.826;2023-04-26T01:23:10;98086.75;;;11.45;100.00
11349;BME280;5729;43.570;27.826;2023-04-26T01:25:36;98082.50;;;11.44;100.00
11349;BME280;5729;43.570;27.826;2023-04-26T01:28:01;98082.50;;;11.40;100.00
11349;BME280;5729;43.570;27.826;2023-04-26T01:30:27;98083.69;;;11.46;100.00
11349;BME280;5729;43.570;27.826;2023-04-26T01:32:52;98082.91;;;11.49;100.00
11349;BME280;5729;43.570;27.826;2023-04-26T01:35:17;98085.22;;;11.51;100.00
11349;BME280;5729;43.570;27.826;2023-04-26T01:37:43;98087.53;;;11.56;100.00
11349;BME280;5729;43.570;27.826;2023-04-26T01:40:09;98083.28;;;11.58;100.00
11349;BME280;5729;43.570;27.826;2023-04-26T01:42:34;98078.66;;;11.59;100.00
11349;BME280;5729;43.570;27.826;2023-04-26T01:45:00;98078.66;;;11.55;100.00
11349;BME280;5729;43.570;27.826;2023-04-26T01:47:25;98077.50;;;11.56;100.00
11349;BME280;5729;43.570;27.826;2023-04-26T01:49:54;98082.13;;;11.56;100.00
11349;BME280;5729;43.570;27.826;2023-04-26T01:52:21;98068.25;;;11.54;100.00
11349;BME280;5729;43.570;27.826;2023-04-26T01:54:46;98069.78;;;11.51;100.00
11349;BME280;5729;43.570;27.826;2023-04-26T01:57:12;98067.09;;;11.48;100.00
11349;BME280;5729;43.570;27.826;2023-04-26T01:59:37;98061.31;;;11.42;100.00
11349;BME280;5729;43.570;27.826;2023-04-26T02:02:03;98065.97;;;11.38;100.00
11349;BME280;5729;43.570;27.826;2023-04-26T02:04:28;98060.94;;;11.33;100.00
11349;BME280;5729;43.570;27.826;2023-04-26T02:06:54;98055.56;;;11.26;100.00
11349;BME280;5729;43.570;27.826;2023-04-26T02:09:19;98064.03;;;11.28;100.00
11349;BME280;5729;43.570;27.826;2023-04-26T02:11:44;98064.41;;;11.30;100.00
11349;BME280;5729;43.570;27.826;2023-04-26T02:14:10;98071.34;;;11.27;100.00
11349;BME280;5729;43.570;27.826;2023-04-26T02:16:38;98068.66;;;11.24;100.00
11349;BME280;5729;43.570;27.826;2023-04-26T02:19:03;98059.78;;;11.27;100.00
11349;BME280;5729;43.570;27.826;2023-04-26T02:21:29;98069.03;;;11.29;100.00
11349;BME280;5729;43.570;27.826;2023-04-26T02:23:55;98064.78;;;11.25;100.00
11349;BME280;5729;43.570;27.826;2023-04-26T02:26:21;98060.94;;;11.29;100.00
11349;BME280;5729;43.570;27.826;2023-04-26T02:28:47;98069.03;;;11.26;100.00
11349;BME280;5729;43.570;27.826;2023-04-26T02:31:12;98075.19;;;11.30;100.00
11349;BME280;5729;43.570;27.826;2023-04-26T02:33:38;98075.97;;;11.34;100.00
11349;BME280;5729;43.570;27.826;2023-04-26T02:36:04;98073.66;;;11.36;100.00
11349;BME280;5729;43.570;27.826;2023-04-26T02:38:32;98077.91;;;11.34;100.00
11349;BME280;5729;43.570;27.826;2023-04-26T02:40:59;98069.03;;;11.33;100.00
11349;BME280;5729;43.570;27.826;2023-04-26T02:43:25;98063.63;;;11.33;100.00
11349;BME280;5729;43.570;27.826;2023-04-26T02:45:51;98067.88;;;11.31;100.00
11349;BME280;5729;43.570;27.826;2023-04-26T02:48:16;98059.78;;;11.27;100.00
11349;BME280;5729;43.570;27.826;2023-04-26T02:50:42;98057.06;;;11.20;100.00
11349;BME280;5729;43.570;27.826;2023-04-26T02:53:07;98062.06;;;11.18;100.00
11349;BME280;5729;43.570;27.826;2023-04-26T02:55:33;98054.38;;;11.23;100.00
11349;BME280;5729;43.570;27.826;2023-04-26T02:57:58;98058.22;;;11.19;100.00
11349;BME280;5729;43.570;27.826;2023-04-26T03:00:24;98059.38;;;11.21;100.00
11349;BME280;5729;43.570;27.826;2023-04-26T03:02:49;98067.47;;;11.21;100.00
11349;BME280;5729;43.570;27.826;2023-04-26T03:05:16;98062.09;;;11.21;100.00
11349;BME280;5729;43.570;27.826;2023-04-26T03:07:41;98060.16;;;11.22;100.00
11349;BME280;5729;43.570;27.826;2023-04-26T03:10:07;98062.50;;;11.27;100.00
11349;BME280;5729;43.570;27.826;2023-04-26T03:12:33;98054.38;;;11.20;100.00
11349;BME280;5729;43.570;27.826;2023-04-26T03:14:59;98055.94;;;11.24;100.00
11349;BME280;5729;43.570;27.826;2023-04-26T03:17:27;98058.22;;;11.29;100.00
11349;BME280;5729;43.570;27.826;2023-04-26T03:19:52;98058.63;;;11.28;100.00
11349;BME280;5729;43.570;27.826;2023-04-26T03:22:18;98060.53;;;11.31;100.00
11349;BME280;5729;43.570;27.826;2023-04-26T03:24:43;98064.41;;;11.34;100.00
11349;BME280;5729;43.570;27.826;2023-04-26T03:27:10;98060.19;;;11.36;100.00
11349;BME280;5729;43.570;27.826;2023-04-26T03:29:35;98062.50;;;11.38;100.00
11349;BME280;5729;43.570;27.826;2023-04-26T03:32:01;98067.50;;;11.46;100.00
11349;BME280;5729;43.570;27.826;2023-04-26T03:34:26;98067.09;;;11.55;100.00
11349;BME280;5729;43.570;27.826;2023-04-26T03:36:52;98062.09;;;11.50;100.00
11349;BME280;5729;43.570;27.826;2023-04-26T03:39:17;98055.53;;;11.54;100.00
11349;BME280;5729;43.570;27.826;2023-04-26T03:41:43;98073.66;;;11.61;100.00
11349;BME280;5729;43.570;27.826;2023-04-26T03:44:08;98059.38;;;11.68;100.00
11349;BME280;5729;43.570;27.826;2023-04-26T03:46:33;98074.41;;;11.69;100.00
11349;BME280;5729;43.570;27.826;2023-04-26T03:48:59;98067.47;;;11.68;100.00
11349;BME280;5729;43.570;27.826;2023-04-26T03:51:25;98069.00;;;11.69;100.00
11349;BME280;5729;43.570;27.826;2023-04-26T03:53:51;98059.75;;;11.70;100.00
11349;BME280;5729;43.570;27.826;2023-04-26T03:56:17;98064.78;;;11.71;100.00
11349;BME280;5729;43.570;27.826;2023-04-26T03:58:42;98062.47;;;11.77;100.00
11349;BME280;5729;43.570;27.826;2023-04-26T04:01:07;98058.63;;;11.85;100.00
11349;BME280;5729;43.570;27.826;2023-04-26T04:03:33;98069.81;;;11.83;100.00
11349;BME280;5729;43.570;27.826;2023-04-26T04:05:58;98072.09;;;11.92;100.00
11349;BME280;5729;43.570;27.826;2023-04-26T04:08:24;98071.31;;;11.91;100.00
11349;BME280;5729;43.570;27.826;2023-04-26T04:10:49;98076.69;;;12.02;100.00
11349;BME280;5729;43.570;27.826;2023-04-26T04:13:15;98078.59;;;12.09;100.00
11349;BME280;5729;43.570;27.826;2023-04-26T04:15:40;98077.06;;;12.11;100.00
11349;BME280;5729;43.570;27.826;2023-04-26T04:18:06;98080.09;;;12.24;100.00
11349;BME280;5729;43.570;27.826;2023-04-26T04:20:31;98077.38;;;12.31;100.00
11349;BME280;5729;43.570;27.826;2023-04-26T04:22:56;98076.97;;;12.36;100.00
11349;BME280;5729;43.570;27.826;2023-04-26T04:25:22;98071.19;;;12.38;100.00
11349;BME280;5729;43.570;27.826;2023-04-26T04:27:49;98077.31;;;12.42;100.00
11349;BME280;5729;43.570;27.826;2023-04-26T04:30:16;98080.03;;;12.49;100.00
11349;BME280;5729;43.570;27.826;2023-04-26T04:32:41;98085.75;;;12.61;100.00
11349;BME280;5729;43.570;27.826;2023-04-26T04:35:11;98077.25;;;12.63;100.00
11349;BME280;5729;43.570;27.826;2023-04-26T04:37:36;98091.88;;;12.72;100.00
11349;BME280;5729;43.570;27.826;2023-04-26T04:40:03;98081.78;;;12.80;100.00
11349;BME280;5729;43.570;27.826;2023-04-26T04:42:28;98087.97;;;12.84;100.00
11349;BME280;5729;43.570;27.826;2023-04-26T04:44:54;98083.28;;;12.92;100.00
11349;BME280;5729;43.570;27.826;2023-04-26T04:47:21;98077.16;;;12.84;100.00
11349;BME280;5729;43.570;27.826;2023-04-26T04:49:46;98084.72;;;13.07;100.00
11349;BME280;5729;43.570;27.826;2023-04-26T04:52:11;98080.88;;;13.04;100.00
11349;BME280;5729;43.570;27.826;2023-04-26T04:54:37;98077.59;;;13.34;100.00
11349;BME280;5729;43.570;27.826;2023-04-26T04:57:02;98079.81;;;13.50;100.00
11349;BME280;5729;43.570;27.826;2023-04-26T04:59:28;98089.75;;;13.60;100.00
11349;BME280;5729;43.570;27.826;2023-04-26T05:01:54;98074.13;;;13.78;100.00
11349;BME280;5729;43.570;27.826;2023-04-26T05:04:20;98087.22;;;13.87;100.00
11349;BME280;5729;43.570;27.826;2023-04-26T05:06:46;98092.63;;;13.87;100.00
11349;BME280;5729;43.570;27.826;2023-04-26T05:09:11;98089.25;;;13.76;100.00
11349;BME280;5729;43.570;27.826;2023-04-26T05:11:37;98092.75;;;13.73;100.00
11349;BME280;5729;43.570;27.826;2023-04-26T05:14:02;98094.78;;;13.62;100.00
11349;BME280;5729;43.570;27.826;2023-04-26T05:16:28;98092.75;;;13.73;100.00
11349;BME280;5729;43.570;27.826;2023-04-26T05:18:53;98090.38;;;13.78;100.00
11349;BME280;5729;43.570;27.826;2023-04-26T05:21:19;98100.88;;;13.73;100.00
11349;BME280;5729;43.570;27.826;2023-04-26T05:23:44;98080.00;;;13.70;100.00
11349;BME280;5729;43.570;27.826;2023-04-26T05:26:14;98094.59;;;13.83;100.00
11349;BME280;5729;43.570;27.826;2023-04-26T05:28:40;98091.81;;;13.90;100.00
11349;BME280;5729;43.570;27.826;2023-04-26T05:31:07;98092.69;;;13.80;100.00
11349;BME280;5729;43.570;27.826;2023-04-26T05:33:33;98100.69;;;13.91;100.00
11349;BME280;5729;43.570;27.826;2023-04-26T05:35:58;98100.31;;;13.92;100.00
11349;BME280;5729;43.570;27.826;2023-04-26T05:38:26;98101.88;;;13.90;100.00
11349;BME280;5729;43.570;27.826;2023-04-26T05:40:51;98110.41;;;13.88;100.00
11349;BME280;5729;43.570;27.826;2023-04-26T05:43:17;98099.47;;;13.99;100.00
11349;BME280;5729;43.570;27.826;2023-04-26T05:45:50;98102.53;;;14.01;100.00
11349;BME280;5729;43.570;27.826;2023-04-26T05:48:16;98101.06;;;13.93;100.00
11349;BME280;5729;43.570;27.826;2023-04-26T05:50:41;98105.78;;;13.85;100.00
11349;BME280;5729;43.570;27.826;2023-04-26T05:53:07;98110.75;;;13.90;100.00
11349;BME280;5729;43.570;27.826;2023-04-26T05:55:32;98108.38;;;13.99;100.00
11349;BME280;5729;43.570;27.826;2023-04-26T05:57:58;98108.31;;;14.03;100.00
11349;BME280;5729;43.570;27.826;2023-04-26T06:00:24;98110.91;;;14.17;100.00
11349;BME280;5729;43.570;27.826;2023-04-26T06:02:49;98107.94;;;14.42;100.00
11349;BME280;5729;43.570;27.826;2023-04-26T06:05:15;98102.13;;;14.43;100.00
11349;BME280;5729;43.570;27.826;2023-04-26T06:07:41;98108.59;;;14.53;100.00
11349;BME280;5729;43.570;27.826;2023-04-26T06:10:07;98123.34;;;14.48;100.00
11349;BME280;5729;43.570;27.826;2023-04-26T06:12:32;98112.22;;;14.39;100.00
11349;BME280;5729;43.570;27.826;2023-04-26T06:14:58;98121.75;;;14.13;100.00
11349;BME280;5729;43.570;27.826;2023-04-26T06:17:23;98119.34;;;14.23;100.00
11349;BME280;5729;43.570;27.826;2023-04-26T06:19:49;98114.94;;;14.39;100.00
11349;BME280;5729;43.570;27.826;2023-04-26T06:22:15;98116.88;;;14.35;100.00
11349;BME280;5729;43.570;27.826;2023-04-26T06:24:40;98112.75;;;14.24;100.00
11349;BME280;5729;43.570;27.826;2023-04-26T06:27:05;98116.59;;;14.26;100.00
11349;BME280;5729;43.570;27.826;2023-04-26T06:29:31;98117.44;;;14.20;100.00
11349;BME280;5729;43.570;27.826;2023-04-26T06:31:57;98120.28;;;14.09;100.00
11349;BME280;5729;43.570;27.826;2023-04-26T06:34:22;98125.63;;;14.12;100.00
11349;BME280;5729;43.570;27.826;2023-04-26T06:36:48;98129.19;;;14.06;100.00
11349;BME280;5729;43.570;27.826;2023-04-26T06:39:13;98132.00;;;13.95;100.00
11349;BME280;5729;43.570;27.826;2023-04-26T06:41:39;98133.66;;;13.86;100.00
11349;BME280;5729;43.570;27.826;2023-04-26T06:44:05;98141.88;;;13.71;100.00
11349;BME280;5729;43.570;27.826;2023-04-26T06:46:30;98137.25;;;13.72;100.00
11349;BME280;5729;43.570;27.826;2023-04-26T06:48:55;98138.91;;;14.00;100.00
11349;BME280;5729;43.570;27.826;2023-04-26T06:51:21;98136.06;;;14.14;100.00
11349;BME280;5729;43.570;27.826;2023-04-26T06:53:47;98121.06;;;14.06;100.00
11349;BME280;5729;43.570;27.826;2023-04-26T06:56:13;98139.53;;;14.18;100.00
11349;BME280;5729;43.570;27.826;2023-04-26T06:58:38;98140.25;;;14.22;100.00
11349;BME280;5729;43.570;27.826;2023-04-26T07:01:04;98146.19;;;14.51;100.00
11349;BME280;5729;43.570;27.826;2023-04-26T07:03:30;98132.59;;;14.85;100.00
11349;BME280;5729;43.570;27.826;2023-04-26T07:05:56;98143.28;;;14.99;100.00
11349;BME280;5729;43.570;27.826;2023-04-26T07:08:22;98132.81;;;15.24;100.00
11349;BME280;5729;43.570;27.826;2023-04-26T07:10:47;98133.94;;;15.27;100.00
11349;BME280;5729;43.570;27.826;2023-04-26T07:13:12;98125.59;;;15.14;100.00
11349;BME280;5729;43.570;27.826;2023-04-26T07:15:38;98133.94;;;15.54;100.00
11349;BME280;5729;43.570;27.826;2023-04-26T07:18:03;98124.00;;;15.71;100.00
11349;BME280;5729;43.570;27.826;2023-04-26T07:20:29;98130.75;;;15.86;100.00
11349;BME280;5729;43.570;27.826;2023-04-26T07:22:54;98130.84;;;16.02;100.00
11349;BME280;5729;43.570;27.826;2023-04-26T07:25:20;98137.31;;;15.88;100.00
11349;BME280;5729;43.570;27.826;2023-04-26T07:27:45;98131.66;;;16.22;100.00
11349;BME280;5729;43.570;27.826;2023-04-26T07:30:11;98129.63;;;16.26;100.00
11349;BME280;5729;43.570;27.826;2023-04-26T07:32:36;98131.03;;;16.34;100.00
11349;BME280;5729;43.570;27.826;2023-04-26T07:35:05;98125.81;;;16.24;100.00
11349;BME280;5729;43.570;27.826;2023-04-26T07:37:40;98121.00;;;16.31;100.00
11349;BME280;5729;43.570;27.826;2023-04-26T07:40:05;98134.69;;;16.67;100.00
11349;BME280;5729;43.570;27.826;2023-04-26T07:42:32;98136.69;;;17.03;100.00
11349;BME280;5729;43.570;27.826;2023-04-26T07:44:58;98128.41;;;17.26;100.00
11349;BME280;5729;43.570;27.826;2023-04-26T07:47:24;98121.41;;;17.25;100.00
11349;BME280;5729;43.570;27.826;2023-04-26T07:49:52;98126.38;;;17.63;100.00
11349;BME280;5729;43.570;27.826;2023-04-26T07:52:18;98132.25;;;17.94;100.00
11349;BME280;5729;43.570;27.826;2023-04-26T07:54:44;98126.06;;;18.06;100.00
11349;BME280;5729;43.570;27.826;2023-04-26T07:57:10;98134.38;;;17.86;100.00
11349;BME280;5729;43.570;27.826;2023-04-26T07:59:36;98130.78;;;18.05;100.00
11349;BME280;5729;43.570;27.826;2023-04-26T08:02:01;98124.88;;;18.23;100.00
11349;BME280;5729;43.570;27.826;2023-04-26T08:04:31;98122.78;;;17.98;100.00
11349;BME280;5729;43.570;27.826;2023-04-26T08:06:59;98116.53;;;18.14;100.00
11349;BME280;5729;43.570;27.826;2023-04-26T08:09:29;98099.91;;;18.08;100.00
11349;BME280;5729;43.570;27.826;2023-04-26T08:11:55;98122.19;;;17.91;100.00
11349;BME280;5729;43.570;27.826;2023-04-26T08:14:21;98119.97;;;17.86;100.00
11349;BME280;5729;43.570;27.826;2023-04-26T08:16:46;98114.09;;;18.32;100.00
11349;BME280;5729;43.570;27.826;2023-04-26T08:19:11;98116.53;;;18.72;100.00
11349;BME280;5729;43.570;27.826;2023-04-26T08:21:37;98119.75;;;18.96;100.00
11349;BME280;5729;43.570;27.826;2023-04-26T08:24:02;98117.31;;;18.85;100.00
11349;BME280;5729;43.570;27.826;2023-04-26T08:26:28;98122.47;;;19.21;100.00
11349;BME280;5729;43.570;27.826;2023-04-26T08:28:53;98113.06;;;19.47;100.00
11349;BME280;5729;43.570;27.826;2023-04-26T08:31:19;98110.75;;;19.84;100.00
11349;BME280;5729;43.570;27.826;2023-04-26T08:33:44;98111.34;;;21.10;91.77
11349;BME280;5729;43.570;27.826;2023-04-26T08:36:10;98104.94;;;22.38;81.20
11349;BME280;5729;43.570;27.826;2023-04-26T08:38:36;98110.28;;;24.01;70.53
11349;BME280;5729;43.570;27.826;2023-04-26T08:41:04;98099.78;;;24.97;61.10
11349;BME280;5729;43.570;27.826;2023-04-26T08:43:29;98100.06;;;24.70;59.42
11349;BME280;5729;43.570;27.826;2023-04-26T08:45:57;98113.34;;;24.42;61.45
11349;BME280;5729;43.570;27.826;2023-04-26T08:48:22;98105.75;;;22.99;53.84
11349;BME280;5729;43.570;27.826;2023-04-26T08:50:49;98094.78;;;21.53;58.07
11349;BME280;5729;43.570;27.826;2023-04-26T08:53:16;98086.53;;;20.51;69.99
11349;BME280;5729;43.570;27.826;2023-04-26T08:55:46;98105.09;;;20.35;76.02
11349;BME280;5729;43.570;27.826;2023-04-26T08:58:12;98101.47;;;20.16;88.21
11349;BME280;5729;43.570;27.826;2023-04-26T09:00:38;98103.09;;;19.79;86.37
11349;BME280;5729;43.570;27.826;2023-04-26T09:03:04;98102.94;;;19.61;96.81
11349;BME280;5729;43.570;27.826;2023-04-26T09:05:29;98099.75;;;19.24;92.07
11349;BME280;5729;43.570;27.826;2023-04-26T09:08:00;98103.69;;;19.23;100.00
11349;BME280;5729;43.570;27.826;2023-04-26T09:10:26;98101.28;;;19.25;92.85
11349;BME280;5729;43.570;27.826;2023-04-26T09:12:52;98096.16;;;19.27;100.00
11349;BME280;5729;43.570;27.826;2023-04-26T09:15:20;98103.16;;;19.28;98.48
11349;BME280;5729;43.570;27.826;2023-04-26T09:17:46;98097.13;;;19.33;97.91
11349;BME280;5729;43.570;27.826;2023-04-26T09:20:24;98098.00;;;19.55;98.39
11349;BME280;5729;43.570;27.826;2023-04-26T09:23:04;98092.41;;;19.72;97.54
11349;BME280;5729;43.570;27.826;2023-04-26T09:25:31;98094.75;;;19.95;100.00
11349;BME280;5729;43.570;27.826;2023-04-26T09:27:57;98103.47;;;19.05;98.89
11349;BME280;5729;43.570;27.826;2023-04-26T09:30:24;98106.09;;;19.21;100.00
11349;BME280;5729;43.570;27.826;2023-04-26T09:32:55;98103.72;;;19.48;100.00
11349;BME280;5729;43.570;27.826;2023-04-26T09:37:51;98103.78;;;19.45;100.00
11349;BME280;5729;43.570;27.826;2023-04-26T09:40:18;98092.31;;;19.37;100.00
11349;BME280;5729;43.570;27.826;2023-04-26T09:42:44;98106.94;;;19.69;100.00
11349;BME280;5729;43.570;27.826;2023-04-26T09:45:10;98102.75;;;19.77;99.59
11349;BME280;5729;43.570;27.826;2023-04-26T09:47:35;98100.72;;;19.55;100.00
11349;BME280;5729;43.570;27.826;2023-04-26T09:50:01;98108.81;;;19.72;100.00
11349;BME280;5729;43.570;27.826;2023-04-26T09:52:26;98108.66;;;19.88;100.00
11349;BME280;5729;43.570;27.826;2023-04-26T09:54:54;98105.00;;;19.56;100.00
11349;BME280;5729;43.570;27.826;2023-04-26T09:57:20;98101.06;;;19.45;100.00
11349;BME280;5729;43.570;27.826;2023-04-26T09:59:51;98099.41;;;19.09;100.00
11349;BME280;5729;43.570;27.826;2023-04-26T10:02:22;98097.13;;;18.95;100.00
11349;BME280;5729;43.570;27.826;2023-04-26T10:04:50;98114.38;;;18.92;100.00
11349;BME280;5729;43.570;27.826;2023-04-26T10:07:18;98105.03;;;18.64;100.00
11349;BME280;5729;43.570;27.826;2023-04-26T10:09:44;98101.13;;;18.07;100.00
11349;BME280;5729;43.570;27.826;2023-04-26T10:12:14;98099.44;;;17.97;100.00
11349;BME280;5729;43.570;27.826;2023-04-26T10:14:42;98110.09;;;17.92;100.00
11349;BME280;5729;43.570;27.826;2023-04-26T10:17:09;98108.41;;;17.82;100.00
11349;BME280;5729;43.570;27.826;2023-04-26T10:19:36;98102.63;;;17.80;100.00
11349;BME280;5729;43.570;27.826;2023-04-26T10:22:22;98096.69;;;17.68;100.00
11349;BME280;5729;43.570;27.826;2023-04-26T10:24:50;98103.75;;;17.82;100.00
11349;BME280;5729;43.570;27.826;2023-04-26T10:27:16;98096.28;;;17.99;100.00
11349;BME280;5729;43.570;27.826;2023-04-26T10:30:11;98104.19;;;18.09;100.00
11349;BME280;5729;43.570;27.826;2023-04-26T10:35:25;98098.09;;;17.89;100.00
11349;BME280;5729;43.570;27.826;2023-04-26T10:40:34;98108.06;;;17.63;100.00
11349;BME280;5729;43.570;27.826;2023-04-26T10:45:37;98106.69;;;17.23;100.00
11349;BME280;5729;43.570;27.826;2023-04-26T10:55:59;98109.75;;;17.25;100.00
11349;BME280;5729;43.570;27.826;2023-04-26T10:58:32;98111.22;;;16.93;100.00
11349;BME280;5729;43.570;27.826;2023-04-26T11:01:05;98115.00;;;17.16;100.00
11349;BME280;5729;43.570;27.826;2023-04-26T11:03:31;98115.50;;;17.11;100.00
11349;BME280;5729;43.570;27.826;2023-04-26T11:05:57;98112.97;;;17.03;100.00
11349;BME280;5729;43.570;27.826;2023-04-26T11:08:27;98105.22;;;17.18;100.00
11349;BME280;5729;43.570;27.826;2023-04-26T11:10:57;98116.13;;;17.51;100.00
11349;BME280;5729;43.570;27.826;2023-04-26T11:13:23;98107.31;;;17.63;100.00
11349;BME280;5729;43.570;27.826;2023-04-26T11:15:53;98108.06;;;17.80;100.00
11349;BME280;5729;43.570;27.826;2023-04-26T11:18:19;98109.13;;;17.69;100.00
11349;BME280;5729;43.570;27.826;2023-04-26T11:20:45;98113.94;;;17.78;100.00
11349;BME280;5729;43.570;27.826;2023-04-26T11:23:11;98108.91;;;17.93;100.00
11349;BME280;5729;43.570;27.826;2023-04-26T11:25:38;98117.41;;;17.62;100.00
11349;BME280;5729;43.570;27.826;2023-04-26T11:28:04;98109.50;;;17.52;100.00
11349;BME280;5729;43.570;27.826;2023-04-26T11:30:31;98109.66;;;17.28;100.00
11349;BME280;5729;43.570;27.826;2023-04-26T11:33:03;98119.53;;;17.22;100.00
11349;BME280;5729;43.570;27.826;2023-04-26T11:35:32;98102.50;;;17.18;100.00
11349;BME280;5729;43.570;27.826;2023-04-26T11:37:59;98112.03;;;17.10;100.00
11349;BME280;5729;43.570;27.826;2023-04-26T11:40:30;98101.63;;;17.05;100.00
11349;BME280;5729;43.570;27.826;2023-04-26T11:43:05;98108.28;;;17.04;100.00
11349;BME280;5729;43.570;27.826;2023-04-26T11:45:32;98103.38;;;16.95;100.00
11349;BME280;5729;43.570;27.826;2023-04-26T11:48:00;98109.59;;;16.96;100.00
11349;BME280;5729;43.570;27.826;2023-04-26T11:50:27;98105.69;;;16.97;100.00
11349;BME280;5729;43.570;27.826;2023-04-26T11:52:54;98113.22;;;17.09;100.00
11349;BME280;5729;43.570;27.826;2023-04-26T11:55:29;98106.16;;;17.12;100.00
11349;BME280;5729;43.570;27.826;2023-04-26T11:57:57;98100.84;;;17.04;100.00
11349;BME280;5729;43.570;27.826;2023-04-26T12:00:23;98107.69;;;17.13;100.00
11349;BME280;5729;43.570;27.826;2023-04-26T12:02:49;98106.03;;;16.99;100.00
11349;BME280;5729;43.570;27.826;2023-04-26T12:05:27;98098.81;;;16.73;100.00
11349;BME280;5729;43.570;27.826;2023-04-26T12:07:56;98101.31;;;17.03;100.00
11349;BME280;5729;43.570;27.826;2023-04-26T12:10:36;98107.69;;;17.13;100.00
11349;BME280;5729;43.570;27.826;2023-04-26T12:13:02;98104.47;;;17.34;100.00
11349;BME280;5729;43.570;27.826;2023-04-26T12:15:31;98107.13;;;17.54;100.00
11349;BME280;5729;43.570;27.826;2023-04-26T12:18:09;98104.25;;;17.77;100.00
11349;BME280;5729;43.570;27.826;2023-04-26T12:20:37;98094.88;;;17.94;100.00
11349;BME280;5729;43.570;27.826;2023-04-26T12:25:35;98095.81;;;18.45;100.00
11349;BME280;5729;43.570;27.826;2023-04-26T12:28:03;98087.84;;;19.05;94.63
11349;BME280;5729;43.570;27.826;2023-04-26T12:30:29;98081.84;;;19.48;91.05
11349;BME280;5729;43.570;27.826;2023-04-26T12:32:55;98097.53;;;19.70;80.85
11349;BME280;5729;43.570;27.826;2023-04-26T12:35:24;98092.00;;;19.61;77.88
11349;BME280;5729;43.570;27.826;2023-04-26T12:37:50;98081.66;;;19.77;85.35
11349;BME280;5729;43.570;27.826;2023-04-26T12:40:18;98077.09;;;19.74;84.29
11349;BME280;5729;43.570;27.826;2023-04-26T12:42:48;98077.88;;;19.75;70.79
11349;BME280;5729;43.570;27.826;2023-04-26T12:45:14;98087.03;;;19.81;73.96
11349;BME280;5729;43.570;27.826;2023-04-26T12:47:39;98079.28;;;20.01;61.23
11349;BME280;5729;43.570;27.826;2023-04-26T12:50:05;98077.13;;;19.96;67.98
11349;BME280;5729;43.570;27.826;2023-04-26T12:52:30;98080.44;;;19.91;68.84
11349;BME280;5729;43.570;27.826;2023-04-26T12:54:57;98082.88;;;20.11;58.83
11349;BME280;5729;43.570;27.826;2023-04-26T12:57:22;98075.00;;;19.78;60.51
11349;BME280;5729;43.570;27.826;2023-04-26T12:59:48;98070.53;;;19.72;65.60
11349;BME280;5729;43.570;27.826;2023-04-26T13:02:13;98074.06;;;19.94;72.64
11349;BME280;5729;43.570;27.826;2023-04-26T13:04:39;98068.94;;;19.96;67.61
11349;BME280;5729;43.570;27.826;2023-04-26T13:07:05;98069.28;;;20.20;60.69